sensor_id;sensor_type;location;lat;lon;timestamp;temperature;humidity
51011;DHT22;37038;50.182;8.624;2022-11-20T00:04:52;2.40;99.90
51011;DHT22;37038;50.182;8.624;2022-11-20T00:13:03;2.30;99.90
51011;DHT22;37038;50.182;8.624;2022-11-20T00:29:33;2.50;99.90
51011;DHT22;37038;50.182;8.624;2022-11-20T00:37:16;2.40;99.90
51011;DHT22;37038;50.182;8.624;2022-11-20T00:46:00;2.70;99.90
51011;DHT22;37038;50.182;8.624;2022-11-20T01:15:50;2.50;99.90
51011;DHT22;37038;50.182;8.624;2022-11-20T01:24:21;2.60;99.90
51011;DHT22;37038;50.182;8.624;2022-11-20T01:32:22;2.20;99.90
51011;DHT22;37038;50.182;8.624;2022-11-20T01:36:22;2.20;99.90
51011;DHT22;37038;50.182;8.624;2022-11-20T01:40:14;2.00;99.90
51011;DHT22;37038;50.182;8.624;2022-11-20T01:44:21;2.10;99.90
51011;DHT22;37038;50.182;8.624;2022-11-20T01:47:47;2.20;99.90
51011;DHT22;37038;50.182;8.624;2022-11-20T01:55:36;2.30;99.90
51011;DHT22;37038;50.182;8.624;2022-11-20T01:59:46;2.50;99.90
51011;DHT22;37038;50.182;8.624;2022-11-20T02:03:46;2.40;99.90
51011;DHT22;37038;50.182;8.624;2022-11-20T02:07:44;2.30;99.90
51011;DHT22;37038;50.182;8.624;2022-11-20T02:10:43;2.30;99.90
51011;DHT22;37038;50.182;8.624;2022-11-20T02:14:15;2.20;99.90
51011;DHT22;37038;50.182;8.624;2022-11-20T02:17:37;2.20;99.90
51011;DHT22;37038;50.182;8.624;2022-11-20T02:28:35;2.10;99.90
51011;DHT22;37038;50.182;8.624;2022-11-20T02:31:58;1.80;99.90
51011;DHT22;37038;50.182;8.624;2022-11-20T02:35:09;1.90;99.90
51011;DHT22;37038;50.182;8.624;2022-11-20T02:38:27;2.00;99.90
51011;DHT22;37038;50.182;8.624;2022-11-20T02:41:52;2.10;99.90
51011;DHT22;37038;50.182;8.624;2022-11-20T02:44:55;2.00;99.90
51011;DHT22;37038;50.182;8.624;2022-11-20T02:48:19;2.10;99.90
51011;DHT22;37038;50.182;8.624;2022-11-20T02:51:14;2.00;99.90
51011;DHT22;37038;50.182;8.624;2022-11-20T02:54:10;1.90;99.90
51011;DHT22;37038;50.182;8.624;2022-11-20T02:57:04;1.80;99.90
51011;DHT22;37038;50.182;8.624;2022-11-20T03:00:41;2.00;99.90
51011;DHT22;37038;50.182;8.624;2022-11-20T03:03:38;2.00;99.90
51011;DHT22;37038;50.182;8.624;2022-11-20T03:06:40;1.70;99.90
51011;DHT22;37038;50.182;8.624;2022-11-20T03:09:40;1.50;99.90
51011;DHT22;37038;50.182;8.624;2022-11-20T03:12:46;1.60;99.90
51011;DHT22;37038;50.182;8.624;2022-11-20T03:16:03;1.50;99.90
51011;DHT22;37038;50.182;8.624;2022-11-20T03:19:11;1.50;99.90
51011;DHT22;37038;50.182;8.624;2022-11-20T03:22:21;1.40;99.90
51011;DHT22;37038;50.182;8.624;2022-11-20T03:25:09;1.50;99.90
51011;DHT22;37038;50.182;8.624;2022-11-20T03:28:01;1.50;99.90
51011;DHT22;37038;50.182;8.624;2022-11-20T03:30:57;1.40;99.90
51011;DHT22;37038;50.182;8.624;2022-11-20T03:34:11;1.50;99.90
51011;DHT22;37038;50.182;8.624;2022-11-20T03:37:10;1.80;99.90
51011;DHT22;37038;50.182;8.624;2022-11-20T03:40:05;1.80;99.90
51011;DHT22;37038;50.182;8.624;2022-11-20T03:43:02;1.90;99.90
51011;DHT22;37038;50.182;8.624;2022-11-20T03:46:06;1.80;99.90
51011;DHT22;37038;50.182;8.624;2022-11-20T03:49:02;1.90;99.90
51011;DHT22;37038;50.182;8.624;2022-11-20T03:51:58;1.80;99.90
51011;DHT22;37038;50.182;8.624;2022-11-20T03:55:03;1.80;99.90
51011;DHT22;37038;50.182;8.624;2022-11-20T03:58:09;1.90;99.90
51011;DHT22;37038;50.182;8.624;2022-11-20T04:01:12;1.90;99.90
51011;DHT22;37038;50.182;8.624;2022-11-20T04:04:07;1.70;99.90
51011;DHT22;37038;50.182;8.624;2022-11-20T04:07:00;1.70;99.90
51011;DHT22;37038;50.182;8.624;2022-11-20T04:09:54;1.70;99.90
51011;DHT22;37038;50.182;8.624;2022-11-20T04:12:51;1.60;99.90
51011;DHT22;37038;50.182;8.624;2022-11-20T04:15:59;1.60;99.90
51011;DHT22;37038;50.182;8.624;2022-11-20T04:19:12;1.70;99.90
51011;DHT22;37038;50.182;8.624;2022-11-20T04:22:15;1.80;99.90
51011;DHT22;37038;50.182;8.624;2022-11-20T04:25:14;1.80;99.90
51011;DHT22;37038;50.182;8.624;2022-11-20T04:28:16;1.70;99.90
51011;DHT22;37038;50.182;8.624;2022-11-20T04:31:15;1.60;99.90
51011;DHT22;37038;50.182;8.624;2022-11-20T04:34:17;1.60;99.90
51011;DHT22;37038;50.182;8.624;2022-11-20T04:37:28;1.50;99.90
51011;DHT22;37038;50.182;8.624;2022-11-20T04:40:29;1.70;99.90
51011;DHT22;37038;50.182;8.624;2022-11-20T04:43:26;1.80;99.90
51011;DHT22;37038;50.182;8.624;2022-11-20T04:46:26;1.80;99.90
51011;DHT22;37038;50.182;8.624;2022-11-20T04:49:16;1.60;99.90
51011;DHT22;37038;50.182;8.624;2022-11-20T04:52:13;1.40;99.90
51011;DHT22;37038;50.182;8.624;2022-11-20T04:55:15;1.30;99.90
51011;DHT22;37038;50.182;8.624;2022-11-20T04:58:03;1.40;99.90
51011;DHT22;37038;50.182;8.624;2022-11-20T05:00:52;1.50;99.90
51011;DHT22;37038;50.182;8.624;2022-11-20T05:04:23;1.70;99.90
51011;DHT22;37038;50.182;8.624;2022-11-20T05:07:30;1.90;99.90
51011;DHT22;37038;50.182;8.624;2022-11-20T05:10:49;1.90;99.90
51011;DHT22;37038;50.182;8.624;2022-11-20T05:13:55;1.90;99.90
51011;DHT22;37038;50.182;8.624;2022-11-20T05:17:12;1.70;99.90
51011;DHT22;37038;50.182;8.624;2022-11-20T05:20:08;1.80;99.90
51011;DHT22;37038;50.182;8.624;2022-11-20T05:22:57;1.80;99.90
51011;DHT22;37038;50.182;8.624;2022-11-20T05:25:52;2.00;99.90
51011;DHT22;37038;50.182;8.624;2022-11-20T05:28:48;2.20;99.90
51011;DHT22;37038;50.182;8.624;2022-11-20T05:31:52;2.50;99.90
51011;DHT22;37038;50.182;8.624;2022-11-20T05:35:24;2.30;99.90
51011;DHT22;37038;50.182;8.624;2022-11-20T05:38:35;2.10;99.90
51011;DHT22;37038;50.182;8.624;2022-11-20T05:45:14;2.00;99.90
51011;DHT22;37038;50.182;8.624;2022-11-20T05:48:16;2.40;99.90
51011;DHT22;37038;50.182;8.624;2022-11-20T05:51:19;2.50;99.90
51011;DHT22;37038;50.182;8.624;2022-11-20T05:54:30;2.70;99.90
51011;DHT22;37038;50.182;8.624;2022-11-20T05:57:33;2.60;99.90
51011;DHT22;37038;50.182;8.624;2022-11-20T06:01:06;2.60;99.90
51011;DHT22;37038;50.182;8.624;2022-11-20T06:03:59;2.80;99.90
51011;DHT22;37038;50.182;8.624;2022-11-20T06:07:42;2.80;99.90
51011;DHT22;37038;50.182;8.624;2022-11-20T06:10:49;2.70;99.90
51011;DHT22;37038;50.182;8.624;2022-11-20T06:13:52;2.40;99.90
51011;DHT22;37038;50.182;8.624;2022-11-20T06:16:58;2.50;99.90
51011;DHT22;37038;50.182;8.624;2022-11-20T06:19:48;2.50;99.90
51011;DHT22;37038;50.182;8.624;2022-11-20T06:22:37;2.60;99.90
51011;DHT22;37038;50.182;8.624;2022-11-20T06:26:29;2.40;99.90
51011;DHT22;37038;50.182;8.624;2022-11-20T06:36:48;2.50;99.90
51011;DHT22;37038;50.182;8.624;2022-11-20T06:40:57;2.70;99.90
51011;DHT22;37038;50.182;8.624;2022-11-20T06:45:34;2.60;99.90
51011;DHT22;37038;50.182;8.624;2022-11-20T07:03:19;1.80;99.90
51011;DHT22;37038;50.182;8.624;2022-11-20T07:07:28;1.60;99.90
51011;DHT22;37038;50.182;8.624;2022-11-20T07:10:41;2.10;99.90
51011;DHT22;37038;50.182;8.624;2022-11-20T07:14:04;2.20;99.90
51011;DHT22;37038;50.182;8.624;2022-11-20T07:22:21;1.70;99.90
51011;DHT22;37038;50.182;8.624;2022-11-20T07:40:01;2.40;99.90
51011;DHT22;37038;50.182;8.624;2022-11-20T07:44:06;1.80;99.90
51011;DHT22;37038;50.182;8.624;2022-11-20T07:48:28;1.20;99.90
51011;DHT22;37038;50.182;8.624;2022-11-20T08:01:32;2.60;99.90
51011;DHT22;37038;50.182;8.624;2022-11-20T08:05:34;2.90;99.90
51011;DHT22;37038;50.182;8.624;2022-11-20T08:13:43;3.30;99.90
51011;DHT22;37038;50.182;8.624;2022-11-20T08:16:59;3.60;99.90
51011;DHT22;37038;50.182;8.624;2022-11-20T08:20:10;3.90;99.90
51011;DHT22;37038;50.182;8.624;2022-11-20T08:23:07;3.80;99.90
51011;DHT22;37038;50.182;8.624;2022-11-20T08:25:55;3.90;99.90
51011;DHT22;37038;50.182;8.624;2022-11-20T08:28:46;3.90;99.90
51011;DHT22;37038;50.182;8.624;2022-11-20T08:31:34;3.90;99.90
51011;DHT22;37038;50.182;8.624;2022-11-20T08:34:22;4.20;99.90
51011;DHT22;37038;50.182;8.624;2022-11-20T08:37:10;3.90;99.90
51011;DHT22;37038;50.182;8.624;2022-11-20T08:39:59;3.70;99.90
51011;DHT22;37038;50.182;8.624;2022-11-20T08:42:48;4.10;99.90
51011;DHT22;37038;50.182;8.624;2022-11-20T08:45:36;4.40;99.90
51011;DHT22;37038;50.182;8.624;2022-11-20T08:48:27;4.40;99.90
51011;DHT22;37038;50.182;8.624;2022-11-20T08:51:15;3.70;99.90
51011;DHT22;37038;50.182;8.624;2022-11-20T08:54:07;3.20;99.90
51011;DHT22;37038;50.182;8.624;2022-11-20T08:56:55;3.40;99.90
51011;DHT22;37038;50.182;8.624;2022-11-20T08:59:43;3.70;99.90
51011;DHT22;37038;50.182;8.624;2022-11-20T09:02:51;3.40;99.90
51011;DHT22;37038;50.182;8.624;2022-11-20T09:05:39;3.10;99.90
51011;DHT22;37038;50.182;8.624;2022-11-20T09:08:28;2.80;99.90
51011;DHT22;37038;50.182;8.624;2022-11-20T09:11:21;2.60;99.90
51011;DHT22;37038;50.182;8.624;2022-11-20T09:14:14;2.60;99.90
51011;DHT22;37038;50.182;8.624;2022-11-20T09:17:03;2.70;99.90
51011;DHT22;37038;50.182;8.624;2022-11-20T09:19:51;2.50;99.90
51011;DHT22;37038;50.182;8.624;2022-11-20T09:22:40;2.70;99.90
51011;DHT22;37038;50.182;8.624;2022-11-20T09:25:28;3.10;99.90
51011;DHT22;37038;50.182;8.624;2022-11-20T09:28:19;3.40;99.90
51011;DHT22;37038;50.182;8.624;2022-11-20T09:31:22;3.60;99.90
51011;DHT22;37038;50.182;8.624;2022-11-20T09:34:13;3.70;99.90
51011;DHT22;37038;50.182;8.624;2022-11-20T09:37:01;4.30;99.90
51011;DHT22;37038;50.182;8.624;2022-11-20T09:40:06;5.10;99.90
51011;DHT22;37038;50.182;8.624;2022-11-20T09:43:32;4.40;99.90
51011;DHT22;37038;50.182;8.624;2022-11-20T09:52:49;3.60;99.90
51011;DHT22;37038;50.182;8.624;2022-11-20T09:56:27;3.70;99.90
51011;DHT22;37038;50.182;8.624;2022-11-20T09:59:38;4.30;99.90
51011;DHT22;37038;50.182;8.624;2022-11-20T10:06:39;4.20;99.90
51011;DHT22;37038;50.182;8.624;2022-11-20T10:10:03;3.70;99.90
51011;DHT22;37038;50.182;8.624;2022-11-20T10:24:44;4.00;99.90
51011;DHT22;37038;50.182;8.624;2022-11-20T10:28:09;4.30;99.90
51011;DHT22;37038;50.182;8.624;2022-11-20T10:31:25;4.10;99.90
51011;DHT22;37038;50.182;8.624;2022-11-20T10:37:53;3.90;99.90
51011;DHT22;37038;50.182;8.624;2022-11-20T10:41:06;3.80;99.90
51011;DHT22;37038;50.182;8.624;2022-11-20T10:44:39;3.60;99.90
51011;DHT22;37038;50.182;8.624;2022-11-20T10:48:14;3.40;99.90
51011;DHT22;37038;50.182;8.624;2022-11-20T11:01:05;3.40;99.90
51011;DHT22;37038;50.182;8.624;2022-11-20T11:04:04;3.40;99.90
51011;DHT22;37038;50.182;8.624;2022-11-20T11:07:40;3.50;99.90
51011;DHT22;37038;50.182;8.624;2022-11-20T11:10:53;3.70;99.90
51011;DHT22;37038;50.182;8.624;2022-11-20T11:13:49;4.00;99.90
51011;DHT22;37038;50.182;8.624;2022-11-20T11:16:55;4.20;99.90
51011;DHT22;37038;50.182;8.624;2022-11-20T11:19:47;4.70;99.90
51011;DHT22;37038;50.182;8.624;2022-11-20T11:22:57;5.10;99.90
51011;DHT22;37038;50.182;8.624;2022-11-20T11:25:57;5.40;99.90
51011;DHT22;37038;50.182;8.624;2022-11-20T11:28:56;4.50;99.90
51011;DHT22;37038;50.182;8.624;2022-11-20T11:31:45;4.30;99.90
51011;DHT22;37038;50.182;8.624;2022-11-20T11:34:36;4.80;99.90
51011;DHT22;37038;50.182;8.624;2022-11-20T11:37:27;4.80;99.90
51011;DHT22;37038;50.182;8.624;2022-11-20T11:40:31;4.30;99.90
51011;DHT22;37038;50.182;8.624;2022-11-20T11:44:00;4.00;99.90
51011;DHT22;37038;50.182;8.624;2022-11-20T11:48:00;4.20;99.90
51011;DHT22;37038;50.182;8.624;2022-11-20T11:50:29;4.50;99.90
51011;DHT22;37038;50.182;8.624;2022-11-20T11:53:24;5.10;99.90
51011;DHT22;37038;50.182;8.624;2022-11-20T11:56:13;5.30;99.90
51011;DHT22;37038;50.182;8.624;2022-11-20T11:59:09;4.80;99.90
51011;DHT22;37038;50.182;8.624;2022-11-20T12:02:21;4.40;99.90
51011;DHT22;37038;50.182;8.624;2022-11-20T12:05:39;4.70;99.90
51011;DHT22;37038;50.182;8.624;2022-11-20T12:14:44;6.20;99.90
51011;DHT22;37038;50.182;8.624;2022-11-20T12:17:34;5.40;99.90
51011;DHT22;37038;50.182;8.624;2022-11-20T12:20:38;5.10;99.90
51011;DHT22;37038;50.182;8.624;2022-11-20T12:30:09;5.40;99.90
51011;DHT22;37038;50.182;8.624;2022-11-20T12:39:35;4.80;99.90
51011;DHT22;37038;50.182;8.624;2022-11-20T12:46:37;4.20;99.90
51011;DHT22;37038;50.182;8.624;2022-11-20T12:50:02;4.30;99.90
51011;DHT22;37038;50.182;8.624;2022-11-20T12:53:05;4.70;99.90
51011;DHT22;37038;50.182;8.624;2022-11-20T13:08:40;5.50;99.90
51011;DHT22;37038;50.182;8.624;2022-11-20T13:18:20;5.50;99.90
51011;DHT22;37038;50.182;8.624;2022-11-20T13:21:22;5.50;99.90
51011;DHT22;37038;50.182;8.624;2022-11-20T13:24:30;5.60;99.90
51011;DHT22;37038;50.182;8.624;2022-11-20T13:27:29;5.60;99.90
51011;DHT22;37038;50.182;8.624;2022-11-20T13:30:20;5.50;99.90
51011;DHT22;37038;50.182;8.624;2022-11-20T13:33:32;5.40;99.90
51011;DHT22;37038;50.182;8.624;2022-11-20T13:36:29;5.30;99.90
51011;DHT22;37038;50.182;8.624;2022-11-20T13:39:38;5.50;99.90
51011;DHT22;37038;50.182;8.624;2022-11-20T13:42:27;5.60;99.90
51011;DHT22;37038;50.182;8.624;2022-11-20T13:45:27;5.30;99.90
51011;DHT22;37038;50.182;8.624;2022-11-20T13:48:40;5.40;99.90
51011;DHT22;37038;50.182;8.624;2022-11-20T13:54:58;5.20;99.90
51011;DHT22;37038;50.182;8.624;2022-11-20T14:01:29;5.00;99.90
51011;DHT22;37038;50.182;8.624;2022-11-20T14:04:26;4.80;99.90
51011;DHT22;37038;50.182;8.624;2022-11-20T14:07:23;4.80;99.90
51011;DHT22;37038;50.182;8.624;2022-11-20T14:10:33;5.10;99.90
51011;DHT22;37038;50.182;8.624;2022-11-20T14:13:22;5.30;99.90
51011;DHT22;37038;50.182;8.624;2022-11-20T14:16:23;5.30;99.90
51011;DHT22;37038;50.182;8.624;2022-11-20T14:22:26;5.30;99.90
51011;DHT22;37038;50.182;8.624;2022-11-20T14:28:04;5.00;99.90
51011;DHT22;37038;50.182;8.624;2022-11-20T14:30:52;5.10;99.90
51011;DHT22;37038;50.182;8.624;2022-11-20T14:33:43;5.10;99.90
51011;DHT22;37038;50.182;8.624;2022-11-20T14:36:32;5.20;99.90
51011;DHT22;37038;50.182;8.624;2022-11-20T14:39:21;5.20;99.90
51011;DHT22;37038;50.182;8.624;2022-11-20T14:42:16;5.40;99.90
51011;DHT22;37038;50.182;8.624;2022-11-20T14:45:11;5.50;99.90
51011;DHT22;37038;50.182;8.624;2022-11-20T14:48:00;5.70;99.90
51011;DHT22;37038;50.182;8.624;2022-11-20T14:50:48;5.80;99.90
51011;DHT22;37038;50.182;8.624;2022-11-20T14:53:36;5.60;99.90
51011;DHT22;37038;50.182;8.624;2022-11-20T14:56:29;5.30;99.90
51011;DHT22;37038;50.182;8.624;2022-11-20T14:59:25;5.30;99.90
51011;DHT22;37038;50.182;8.624;2022-11-20T15:02:17;5.30;99.90
51011;DHT22;37038;50.182;8.624;2022-11-20T15:05:07;4.90;99.90
51011;DHT22;37038;50.182;8.624;2022-11-20T15:08:07;4.80;99.90
51011;DHT22;37038;50.182;8.624;2022-11-20T15:10:57;4.50;99.90
51011;DHT22;37038;50.182;8.624;2022-11-20T15:13:46;4.40;99.90
51011;DHT22;37038;50.182;8.624;2022-11-20T15:16:34;4.40;99.90
51011;DHT22;37038;50.182;8.624;2022-11-20T15:19:23;4.40;99.90
51011;DHT22;37038;50.182;8.624;2022-11-20T15:22:12;4.60;99.90
51011;DHT22;37038;50.182;8.624;2022-11-20T15:25:01;4.70;99.90
51011;DHT22;37038;50.182;8.624;2022-11-20T15:27:55;4.90;99.90
51011;DHT22;37038;50.182;8.624;2022-11-20T15:30:47;4.90;99.90
51011;DHT22;37038;50.182;8.624;2022-11-20T15:33:36;4.80;99.90
51011;DHT22;37038;50.182;8.624;2022-11-20T15:36:24;4.80;99.90
51011;DHT22;37038;50.182;8.624;2022-11-20T15:39:14;4.90;99.90
51011;DHT22;37038;50.182;8.624;2022-11-20T15:42:02;4.70;99.90
51011;DHT22;37038;50.182;8.624;2022-11-20T15:44:50;4.60;99.90
51011;DHT22;37038;50.182;8.624;2022-11-20T15:47:38;4.60;99.90
51011;DHT22;37038;50.182;8.624;2022-11-20T15:50:38;4.60;99.90
51011;DHT22;37038;50.182;8.624;2022-11-20T15:53:29;4.50;99.90
51011;DHT22;37038;50.182;8.624;2022-11-20T15:56:20;4.80;99.90
51011;DHT22;37038;50.182;8.624;2022-11-20T15:59:19;5.00;99.90
51011;DHT22;37038;50.182;8.624;2022-11-20T16:02:22;5.00;99.90
51011;DHT22;37038;50.182;8.624;2022-11-20T16:05:15;4.90;99.90
51011;DHT22;37038;50.182;8.624;2022-11-20T16:08:10;4.90;99.90
51011;DHT22;37038;50.182;8.624;2022-11-20T16:10:59;5.00;99.90
51011;DHT22;37038;50.182;8.624;2022-11-20T16:13:50;4.90;99.90
51011;DHT22;37038;50.182;8.624;2022-11-20T16:16:59;4.90;99.90
51011;DHT22;37038;50.182;8.624;2022-11-20T16:19:53;4.80;99.90
51011;DHT22;37038;50.182;8.624;2022-11-20T16:22:49;5.00;99.90
51011;DHT22;37038;50.182;8.624;2022-11-20T16:25:44;5.10;99.90
51011;DHT22;37038;50.182;8.624;2022-11-20T16:28:37;4.90;99.90
51011;DHT22;37038;50.182;8.624;2022-11-20T16:31:28;4.80;99.90
51011;DHT22;37038;50.182;8.624;2022-11-20T16:34:16;4.90;99.90
51011;DHT22;37038;50.182;8.624;2022-11-20T16:37:09;5.00;99.90
51011;DHT22;37038;50.182;8.624;2022-11-20T16:39:59;5.00;99.90
51011;DHT22;37038;50.182;8.624;2022-11-20T16:42:53;5.00;99.90
51011;DHT22;37038;50.182;8.624;2022-11-20T16:46:11;4.90;99.90
51011;DHT22;37038;50.182;8.624;2022-11-20T16:49:22;4.90;99.90
51011;DHT22;37038;50.182;8.624;2022-11-20T16:52:37;5.10;99.90
51011;DHT22;37038;50.182;8.624;2022-11-20T16:55:32;5.00;99.90
51011;DHT22;37038;50.182;8.624;2022-11-20T16:58:33;5.10;99.90
51011;DHT22;37038;50.182;8.624;2022-11-20T17:01:47;5.00;99.90
51011;DHT22;37038;50.182;8.624;2022-11-20T18:00:18;5.10;99.90
51011;DHT22;37038;50.182;8.624;2022-11-20T18:09:09;5.20;99.90
51011;DHT22;37038;50.182;8.624;2022-11-20T18:12:53;5.00;99.90
51011;DHT22;37038;50.182;8.624;2022-11-20T18:16:46;5.20;99.90
51011;DHT22;37038;50.182;8.624;2022-11-20T18:19:50;5.10;99.90
51011;DHT22;37038;50.182;8.624;2022-11-20T18:23:06;5.20;99.90
51011;DHT22;37038;50.182;8.624;2022-11-20T18:26:06;5.20;99.90
51011;DHT22;37038;50.182;8.624;2022-11-20T18:29:06;5.30;99.90
51011;DHT22;37038;50.182;8.624;2022-11-20T18:31:58;5.00;99.90
51011;DHT22;37038;50.182;8.624;2022-11-20T18:34:50;5.10;99.90
51011;DHT22;37038;50.182;8.624;2022-11-20T18:37:44;5.30;99.90
51011;DHT22;37038;50.182;8.624;2022-11-20T18:40:36;5.20;99.90
51011;DHT22;37038;50.182;8.624;2022-11-20T18:43:29;5.20;99.90
51011;DHT22;37038;50.182;8.624;2022-11-20T18:46:55;5.30;99.90
51011;DHT22;37038;50.182;8.624;2022-11-20T18:49:59;5.30;99.90
51011;DHT22;37038;50.182;8.624;2022-11-20T18:53:27;5.20;99.90
51011;DHT22;37038;50.182;8.624;2022-11-20T18:56:44;5.20;99.90
51011;DHT22;37038;50.182;8.624;2022-11-20T18:59:42;5.10;99.90
51011;DHT22;37038;50.182;8.624;2022-11-20T19:03:12;5.10;99.90
51011;DHT22;37038;50.182;8.624;2022-11-20T19:06:58;5.00;99.90
51011;DHT22;37038;50.182;8.624;2022-11-20T19:10:08;5.10;99.90
51011;DHT22;37038;50.182;8.624;2022-11-20T19:13:25;5.10;99.90
51011;DHT22;37038;50.182;8.624;2022-11-20T19:21:19;5.20;99.90
51011;DHT22;37038;50.182;8.624;2022-11-20T19:24:24;5.10;99.90
51011;DHT22;37038;50.182;8.624;2022-11-20T19:27:28;5.10;99.90
51011;DHT22;37038;50.182;8.624;2022-11-20T19:30:46;5.20;99.90
51011;DHT22;37038;50.182;8.624;2022-11-20T19:33:42;5.30;99.90
51011;DHT22;37038;50.182;8.624;2022-11-20T19:36:57;5.30;99.90
51011;DHT22;37038;50.182;8.624;2022-11-20T19:39:53;5.30;99.90
51011;DHT22;37038;50.182;8.624;2022-11-20T19:43:04;5.30;99.90
51011;DHT22;37038;50.182;8.624;2022-11-20T19:46:21;5.30;99.90
51011;DHT22;37038;50.182;8.624;2022-11-20T19:49:16;5.40;99.90
51011;DHT22;37038;50.182;8.624;2022-11-20T19:52:20;5.40;99.90
51011;DHT22;37038;50.182;8.624;2022-11-20T19:56:28;5.40;99.90
51011;DHT22;37038;50.182;8.624;2022-11-20T20:07:09;5.60;99.90
51011;DHT22;37038;50.182;8.624;2022-11-20T20:10:56;5.60;99.90
51011;DHT22;37038;50.182;8.624;2022-11-20T20:21:59;5.70;99.90
51011;DHT22;37038;50.182;8.624;2022-11-20T20:33:24;5.70;99.90
51011;DHT22;37038;50.182;8.624;2022-11-20T20:37:48;5.70;99.90
51011;DHT22;37038;50.182;8.624;2022-11-20T20:41:40;5.70;99.90
51011;DHT22;37038;50.182;8.624;2022-11-20T20:45:09;5.70;99.90
51011;DHT22;37038;50.182;8.624;2022-11-20T20:48:07;5.70;99.90
51011;DHT22;37038;50.182;8.624;2022-11-20T20:51:29;5.80;99.90
51011;DHT22;37038;50.182;8.624;2022-11-20T20:59:30;5.70;99.90
51011;DHT22;37038;50.182;8.624;2022-11-20T21:03:08;5.80;99.90
51011;DHT22;37038;50.182;8.624;2022-11-20T21:07:05;5.70;99.90
51011;DHT22;37038;50.182;8.624;2022-11-20T21:15:18;5.70;99.90
51011;DHT22;37038;50.182;8.624;2022-11-20T21:19:29;5.60;99.90
51011;DHT22;37038;50.182;8.624;2022-11-20T21:26:15;5.70;99.90
51011;DHT22;37038;50.182;8.624;2022-11-20T21:53:58;5.50;99.90
51011;DHT22;37038;50.182;8.624;2022-11-20T22:05:12;5.50;99.90
51011;DHT22;37038;50.182;8.624;2022-11-20T22:11:12;5.50;99.90
51011;DHT22;37038;50.182;8.624;2022-11-20T22:14:37;5.50;99.90
51011;DHT22;37038;50.182;8.624;2022-11-20T22:17:52;5.50;99.90
51011;DHT22;37038;50.182;8.624;2022-11-20T22:34:13;5.60;99.90
51011;DHT22;37038;50.182;8.624;2022-11-20T22:37:14;5.60;99.90
51011;DHT22;37038;50.182;8.624;2022-11-20T22:41:22;5.50;99.90
51011;DHT22;37038;50.182;8.624;2022-11-20T22:44:39;5.60;99.90
51011;DHT22;37038;50.182;8.624;2022-11-20T22:48:02;5.60;99.90
51011;DHT22;37038;50.182;8.624;2022-11-20T22:51:46;5.60;99.90
51011;DHT22;37038;50.182;8.624;2022-11-20T22:56:01;5.60;99.90
51011;DHT22;37038;50.182;8.624;2022-11-20T22:59:03;5.60;99.90
51011;DHT22;37038;50.182;8.624;2022-11-20T23:02:33;5.60;99.90
51011;DHT22;37038;50.182;8.624;2022-11-20T23:09:24;5.60;99.90
51011;DHT22;37038;50.182;8.624;2022-11-20T23:12:32;5.60;99.90
51011;DHT22;37038;50.182;8.624;2022-11-20T23:22:43;5.60;99.90
51011;DHT22;37038;50.182;8.624;2022-11-20T23:26:15;5.60;99.90
51011;DHT22;37038;50.182;8.624;2022-11-20T23:33:13;5.60;99.90
51011;DHT22;37038;50.182;8.624;2022-11-20T23:40:22;5.60;99.90
51011;DHT22;37038;50.182;8.624;2022-11-20T23:43:57;5.70;99.90
51011;DHT22;37038;50.182;8.624;2022-11-20T23:47:34;5.70;99.90
51011;DHT22;37038;50.182;8.624;2022-11-20T23:50:36;5.70;99.90
51011;DHT22;37038;50.182;8.624;2022-11-20T23:53:54;5.70;99.90
51011;DHT22;37038;50.182;8.624;2022-11-20T23:57:05;5.70;99.90
